createdAt,value
2017-01-10T00:00:19.798Z,4.42
2017-01-10T00:01:19.797Z,4.5
2017-01-10T00:02:19.803Z,4.43
2017-01-10T00:03:19.816Z,4.46
2017-01-10T00:04:19.851Z,4.44
2017-01-10T00:05:19.982Z,4.51
2017-01-10T00:06:19.818Z,4.5
2017-01-10T00:07:19.821Z,4.5
2017-01-10T00:08:19.816Z,4.46
2017-01-10T00:09:20.277Z,4.5
2017-01-10T00:10:19.849Z,4.46
2017-01-10T00:11:20.076Z,4.43
2017-01-10T00:12:19.844Z,4.5
2017-01-10T00:13:19.849Z,4.51
2017-01-10T00:14:20.046Z,4.46
2017-01-10T00:15:20.065Z,4.37
2017-01-10T00:16:19.853Z,4.52
2017-01-10T00:17:19.805Z,4.5
2017-01-10T00:18:20.133Z,4.52
2017-01-10T00:19:20.088Z,4.51
2017-01-10T00:20:19.870Z,4.47
2017-01-10T00:21:19.920Z,4.43
2017-01-10T00:22:19.806Z,4.54
2017-01-10T00:23:19.935Z,4.55
2017-01-10T00:24:19.923Z,4.47
2017-01-10T00:25:19.843Z,4.47
2017-01-10T00:26:19.802Z,4.5
2017-01-10T00:27:19.842Z,4.52
2017-01-10T00:28:19.865Z,4.58
2017-01-10T00:29:19.945Z,4.43
2017-01-10T00:30:19.829Z,4.51
2017-01-10T00:31:19.907Z,4.44
2017-01-10T00:32:19.951Z,4.46
2017-01-10T00:33:19.840Z,4.37
2017-01-10T00:34:19.897Z,4.44
2017-01-10T00:35:20.170Z,4.51
2017-01-10T00:36:19.888Z,4.46
2017-01-10T00:37:19.837Z,4.59
2017-01-10T00:38:19.915Z,4.52
2017-01-10T00:39:19.873Z,4.37
2017-01-10T00:40:19.827Z,4.54
2017-01-10T00:41:19.963Z,4.47
2017-01-10T00:42:19.843Z,4.46
2017-01-10T00:43:19.890Z,4.39
2017-01-10T00:44:19.984Z,4.4
2017-01-10T00:45:19.855Z,4.47
2017-01-10T00:46:20.497Z,4.43
2017-01-10T00:47:20.137Z,4.44
2017-01-10T00:48:20.092Z,4.52
2017-01-10T00:49:19.914Z,4.42
2017-01-10T00:50:21.206Z,4.43
2017-01-10T00:51:19.837Z,4.61
2017-01-10T00:52:20.142Z,4.44
2017-01-10T00:53:20.408Z,4.37
2017-01-10T00:54:19.854Z,4.29
2017-01-10T00:55:19.893Z,4.39
2017-01-10T00:56:20.804Z,4.61
2017-01-10T00:57:19.832Z,4.32
2017-01-10T00:58:19.845Z,4.51
2017-01-10T00:59:20.095Z,4.54
2017-01-10T01:00:19.921Z,4.52
2017-01-10T01:01:20.356Z,4.42
2017-01-10T01:02:19.845Z,4.52
2017-01-10T01:03:19.844Z,4.43
2017-01-10T01:04:19.889Z,4.44
2017-01-10T01:05:19.850Z,4.47
2017-01-10T01:06:19.871Z,4.4
2017-01-10T01:07:19.885Z,4.39
2017-01-10T01:08:19.923Z,4.47
2017-01-10T01:09:19.887Z,4.46
2017-01-10T01:10:19.882Z,4.4
2017-01-10T01:11:19.831Z,4.46
2017-01-10T01:12:19.854Z,4.47
2017-01-10T01:13:20.138Z,4.54
2017-01-10T01:14:19.883Z,4.44
2017-01-10T01:15:19.879Z,4.51
2017-01-10T01:16:19.901Z,4.5
2017-01-10T01:17:20.020Z,4.54
2017-01-10T01:18:20.638Z,4.5
2017-01-10T01:19:19.895Z,4.4
2017-01-10T01:20:19.906Z,4.51
2017-01-10T01:21:19.834Z,4.5
2017-01-10T01:22:19.834Z,4.44
2017-01-10T01:23:19.855Z,4.52
2017-01-10T01:24:19.869Z,4.52
2017-01-10T01:25:19.921Z,4.42
2017-01-10T01:26:19.994Z,4.44
2017-01-10T01:27:19.834Z,4.43
2017-01-10T01:28:19.855Z,4.46
2017-01-10T01:29:19.917Z,4.5
2017-01-10T01:30:19.837Z,4.55
2017-01-10T01:31:19.882Z,4.42
2017-01-10T01:32:19.868Z,4.44
2017-01-10T01:33:19.877Z,4.47
2017-01-10T01:34:19.916Z,4.62
2017-01-10T01:35:19.892Z,4.58
2017-01-10T01:36:19.860Z,4.61
2017-01-10T01:37:19.940Z,4.65
2017-01-10T01:38:19.857Z,4.58
2017-01-10T01:39:20.173Z,4.62
2017-01-10T01:40:20.597Z,4.62
2017-01-10T01:41:20.842Z,4.51
2017-01-10T01:42:19.916Z,4.43
2017-01-10T01:43:20.807Z,4.69
2017-01-10T01:44:19.971Z,4.55
2017-01-10T01:45:20.049Z,4.58
2017-01-10T01:46:19.930Z,4.58
2017-01-10T01:47:20.346Z,4.61
2017-01-10T01:48:20.803Z,4.5
2017-01-10T01:49:19.885Z,4.43
2017-01-10T01:50:19.854Z,4.52
2017-01-10T01:51:19.860Z,4.57
2017-01-10T01:52:19.880Z,4.58
2017-01-10T01:53:19.897Z,4.42
2017-01-10T01:54:19.904Z,4.58
2017-01-10T01:55:20.941Z,4.52
2017-01-10T01:56:19.908Z,4.46
2017-01-10T01:57:20.577Z,4.51
2017-01-10T01:58:19.876Z,4.5
2017-01-10T01:59:19.882Z,4.5
2017-01-10T02:00:19.872Z,4.5
2017-01-10T02:01:20.005Z,4.4
2017-01-10T02:02:19.877Z,4.52
2017-01-10T02:03:19.869Z,4.46
2017-01-10T02:04:19.902Z,4.55
2017-01-10T02:05:20.781Z,4.59
2017-01-10T02:06:20.925Z,4.46
2017-01-10T02:07:19.888Z,4.51
2017-01-10T02:08:19.886Z,4.52
2017-01-10T02:09:20.947Z,4.57
2017-01-10T02:10:19.873Z,4.51
2017-01-10T02:11:20.569Z,4.47
2017-01-10T02:12:20.489Z,4.44
2017-01-10T02:13:19.896Z,4.58
2017-01-10T02:14:19.918Z,4.51
2017-01-10T02:15:19.905Z,4.46
2017-01-10T02:16:20.192Z,4.47
2017-01-10T02:17:20.059Z,4.52
2017-01-10T02:18:19.909Z,4.69
2017-01-10T02:19:20.016Z,4.42
2017-01-10T02:20:19.935Z,4.51
2017-01-10T02:21:19.920Z,4.61
2017-01-10T02:22:19.908Z,4.47
2017-01-10T02:23:19.988Z,4.58
2017-01-10T02:24:20.371Z,4.5
2017-01-10T02:25:20.292Z,4.52
2017-01-10T02:26:19.920Z,4.46
2017-01-10T02:27:19.924Z,4.46
2017-01-10T02:28:19.959Z,4.5
2017-01-10T02:29:19.958Z,4.59
2017-01-10T02:30:19.930Z,4.55
2017-01-10T02:31:19.899Z,4.52
2017-01-10T02:32:19.926Z,4.42
2017-01-10T02:33:19.918Z,4.54
2017-01-10T02:34:19.957Z,4.57
2017-01-10T02:35:19.966Z,4.51
2017-01-10T02:36:19.940Z,4.57
2017-01-10T02:37:19.918Z,4.57
2017-01-10T02:38:19.918Z,4.64
2017-01-10T02:39:19.908Z,4.73
2017-01-10T02:40:19.921Z,4.62
2017-01-10T02:41:19.908Z,4.55
2017-01-10T02:42:19.894Z,4.46
2017-01-10T02:43:19.890Z,4.54
2017-01-10T02:44:20.302Z,4.54
2017-01-10T02:45:19.913Z,4.58
2017-01-10T02:46:19.921Z,4.51
2017-01-10T02:47:20.027Z,4.44
2017-01-10T02:48:19.933Z,4.46
2017-01-10T02:49:19.952Z,4.54
2017-01-10T02:50:19.918Z,4.47
2017-01-10T02:51:19.909Z,4.5
2017-01-10T02:52:19.889Z,4.54
2017-01-10T02:53:19.896Z,4.43
2017-01-10T02:54:19.899Z,4.51
2017-01-10T02:55:19.947Z,4.59
2017-01-10T02:56:19.953Z,4.62
2017-01-10T02:57:19.907Z,4.51
2017-01-10T02:58:19.913Z,4.52
2017-01-10T02:59:19.921Z,4.59
2017-01-10T03:00:19.903Z,4.5
2017-01-10T03:01:19.895Z,4.5
2017-01-10T03:02:20.034Z,4.54
2017-01-10T03:03:19.893Z,4.46
2017-01-10T03:04:20.107Z,4.54
2017-01-10T03:05:19.907Z,4.5
2017-01-10T03:06:19.880Z,4.58
2017-01-10T03:07:19.965Z,4.46
2017-01-10T03:08:19.941Z,4.57
2017-01-10T03:09:19.936Z,4.46
2017-01-10T03:10:19.948Z,4.44
2017-01-10T03:11:19.906Z,4.51
2017-01-10T03:12:19.895Z,4.5
2017-01-10T03:13:19.902Z,4.47
2017-01-10T03:14:19.981Z,4.42
2017-01-10T03:15:19.903Z,4.54
2017-01-10T03:16:19.924Z,4.39
2017-01-10T03:17:19.908Z,4.46
2017-01-10T03:18:19.944Z,4.39
2017-01-10T03:19:19.998Z,4.42
2017-01-10T03:20:19.903Z,4.47
2017-01-10T03:21:19.928Z,4.46
2017-01-10T03:22:19.978Z,4.46
2017-01-10T03:23:19.981Z,4.5
2017-01-10T03:24:19.994Z,4.37
2017-01-10T03:25:19.918Z,4.51
2017-01-10T03:26:19.948Z,4.44
2017-01-10T03:27:19.953Z,4.43
2017-01-10T03:28:19.958Z,4.4
2017-01-10T03:29:19.998Z,4.5
2017-01-10T03:30:19.950Z,4.46
2017-01-10T03:31:19.943Z,4.44
2017-01-10T03:32:19.960Z,4.42
2017-01-10T03:33:32.622Z,4.46
2017-01-10T03:34:19.967Z,4.43
2017-01-10T03:35:19.971Z,4.46
2017-01-10T03:36:19.978Z,4.42
2017-01-10T03:37:19.937Z,4.39
2017-01-10T03:38:19.993Z,4.43
2017-01-10T03:39:20.024Z,4.34
2017-01-10T03:40:19.971Z,4.47
2017-01-10T03:41:25.864Z,4.5
2017-01-10T03:42:25.777Z,4.36
2017-01-10T03:43:19.954Z,4.42
2017-01-10T03:45:19.939Z,4.37
2017-01-10T03:46:21.768Z,4.4
2017-01-10T03:47:19.964Z,4.43
2017-01-10T03:48:19.930Z,4.47
2017-01-10T03:49:19.937Z,4.36
2017-01-10T03:50:19.927Z,4.5
2017-01-10T03:51:19.920Z,4.32
2017-01-10T03:52:19.921Z,4.42
2017-01-10T03:53:19.966Z,4.39
2017-01-10T03:54:19.944Z,4.32
2017-01-10T03:55:19.945Z,4.43
2017-01-10T03:56:19.938Z,4.32
2017-01-10T03:57:19.933Z,4.32
2017-01-10T03:58:19.969Z,4.34
2017-01-10T03:59:19.933Z,4.29
2017-01-10T04:00:19.937Z,4.42
2017-01-10T04:02:19.936Z,4.28
2017-01-10T04:03:20.014Z,4.36
2017-01-10T04:04:20.027Z,4.39
2017-01-10T04:05:19.958Z,4.34
2017-01-10T04:06:20.010Z,4.42
2017-01-10T04:07:19.952Z,4.36
2017-01-10T04:08:19.982Z,4.34
2017-01-10T04:09:20.044Z,4.39
2017-01-10T04:10:19.964Z,4.25
2017-01-10T04:12:19.948Z,4.32
2017-01-10T04:13:25.674Z,4.4
2017-01-10T04:14:20.616Z,4.28
2017-01-10T04:15:25.777Z,4.39
2017-01-10T04:16:19.977Z,4.39
2017-01-10T04:17:19.999Z,4.37
2017-01-10T04:18:20.007Z,4.33
2017-01-10T04:19:20.020Z,4.33
2017-01-10T04:20:19.988Z,4.34
2017-01-10T04:21:19.975Z,4.36
2017-01-10T04:22:19.965Z,4.39
2017-01-10T04:23:20.040Z,4.4
2017-01-10T04:24:20.007Z,4.33
2017-01-10T04:25:19.969Z,4.29
2017-01-10T04:26:19.949Z,4.37
2017-01-10T04:27:20.003Z,4.21
2017-01-10T04:28:20.049Z,4.34
2017-01-10T04:29:20.397Z,4.34
2017-01-10T04:30:19.993Z,4.36
2017-01-10T04:31:19.962Z,4.37
2017-01-10T04:32:19.996Z,4.26
2017-01-10T04:33:19.965Z,4.36
2017-01-10T04:34:20.007Z,4.5
2017-01-10T04:35:19.984Z,4.36
2017-01-10T04:36:19.997Z,4.36
2017-01-10T04:37:20.003Z,4.28
2017-01-10T04:38:19.988Z,4.33
2017-01-10T04:39:20.026Z,4.29
2017-01-10T04:40:20.029Z,4.36
2017-01-10T04:41:20.035Z,4.39
2017-01-10T04:42:20.043Z,4.4
2017-01-10T04:43:20.101Z,4.37
2017-01-10T04:44:20.023Z,4.39
2017-01-10T04:45:20.048Z,4.29
2017-01-10T04:46:20.026Z,4.33
2017-01-10T04:47:19.997Z,4.29
2017-01-10T04:48:20.020Z,4.42
2017-01-10T04:49:20.012Z,4.39
2017-01-10T04:50:20.020Z,4.39
2017-01-10T04:51:19.999Z,4.26
2017-01-10T04:52:20.077Z,4.29
2017-01-10T04:53:20.011Z,4.42
2017-01-10T04:54:20.044Z,4.34
2017-01-10T04:55:20.009Z,4.39
2017-01-10T04:56:20.011Z,4.37
2017-01-10T04:57:20.044Z,4.32
2017-01-10T04:58:20.041Z,4.37
2017-01-10T04:59:20.065Z,4.26
2017-01-10T05:00:20.043Z,4.24
2017-01-10T05:01:20.056Z,4.33
2017-01-10T05:02:20.036Z,4.24
2017-01-10T05:03:20.048Z,4.29
2017-01-10T05:04:20.050Z,4.29
2017-01-10T05:05:20.043Z,4.24
2017-01-10T05:06:20.032Z,4.36
2017-01-10T05:07:20.040Z,4.29
2017-01-10T05:08:20.043Z,4.36
2017-01-10T05:09:20.092Z,4.26
2017-01-10T05:10:20.018Z,4.44
2017-01-10T05:11:20.042Z,4.33
2017-01-10T05:12:20.041Z,4.47
2017-01-10T05:13:20.040Z,4.29
2017-01-10T05:14:20.017Z,4.36
2017-01-10T05:15:20.054Z,4.21
2017-01-10T05:16:20.015Z,4.37
2017-01-10T05:17:20.062Z,4.25
2017-01-10T05:18:20.031Z,4.22
2017-01-10T05:19:20.156Z,4.33
2017-01-10T05:20:20.099Z,4.33
2017-01-10T05:21:20.097Z,4.42
2017-01-10T05:22:20.026Z,4.22
2017-01-10T05:23:20.033Z,4.4
2017-01-10T05:24:20.032Z,4.29
2017-01-10T05:25:20.060Z,4.39
2017-01-10T05:26:20.043Z,4.29
2017-01-10T05:27:20.040Z,4.32
2017-01-10T05:28:20.052Z,4.33
2017-01-10T05:29:20.051Z,4.37
2017-01-10T05:30:20.015Z,4.29
2017-01-10T05:31:20.005Z,4.19
2017-01-10T05:32:20.073Z,4.29
2017-01-10T05:33:20.035Z,4.33
2017-01-10T05:34:20.036Z,4.39
2017-01-10T05:35:19.992Z,4.33
2017-01-10T05:36:20.029Z,4.29
2017-01-10T05:37:20.044Z,4.4
2017-01-10T05:38:20.052Z,4.34
2017-01-10T05:39:20.044Z,4.33
2017-01-10T05:40:20.040Z,4.36
2017-01-10T05:41:20.074Z,4.33
2017-01-10T05:42:20.047Z,4.33
2017-01-10T05:43:20.189Z,4.16
2017-01-10T05:44:20.054Z,4.22
2017-01-10T05:45:20.060Z,4.24
2017-01-10T05:46:20.022Z,4.34
2017-01-10T05:47:20.023Z,4.32
2017-01-10T05:48:20.460Z,4.26
2017-01-10T05:49:20.028Z,4.32
2017-01-10T05:50:20.046Z,4.26
2017-01-10T05:51:20.009Z,4.25
2017-01-10T05:52:20.043Z,4.25
2017-01-10T05:53:20.622Z,4.24
2017-01-10T05:54:20.052Z,4.26
2017-01-10T05:55:20.033Z,4.19
2017-01-10T05:56:20.059Z,4.21
2017-01-10T05:57:20.111Z,4.24
2017-01-10T05:58:20.187Z,4.25
2017-01-10T05:59:20.040Z,4.22
2017-01-10T06:00:20.033Z,4.06
2017-01-10T06:01:20.073Z,4.18
2017-01-10T06:02:20.061Z,4.26
2017-01-10T06:03:20.068Z,4.08
2017-01-10T06:04:20.075Z,4.18
2017-01-10T06:05:20.084Z,4.21
2017-01-10T06:06:20.091Z,4.15
2017-01-10T06:07:20.105Z,4.19
2017-01-10T06:08:20.120Z,4.18
2017-01-10T06:09:20.078Z,4.24
2017-01-10T06:10:20.046Z,4.15
2017-01-10T06:11:20.065Z,4.07
2017-01-10T06:12:20.046Z,4.22
2017-01-10T06:13:20.078Z,4.07
2017-01-10T06:14:20.265Z,4.18
2017-01-10T06:15:20.075Z,4.14
2017-01-10T06:16:20.040Z,4.01
2017-01-10T06:17:20.077Z,4.19
2017-01-10T06:18:20.498Z,3.98
2017-01-10T06:19:20.081Z,4.01
2017-01-10T06:20:20.114Z,4.06
2017-01-10T06:21:20.029Z,4.1
2017-01-10T06:22:20.235Z,3.94
2017-01-10T06:23:20.042Z,4.01
2017-01-10T06:24:20.796Z,4.04
2017-01-10T06:25:20.052Z,3.98
2017-01-10T06:26:20.078Z,3.89
2017-01-10T06:27:20.085Z,3.96
2017-01-10T06:28:20.058Z,3.85
2017-01-10T06:29:20.086Z,3.97
2017-01-10T06:30:20.067Z,4.1
2017-01-10T06:31:20.088Z,3.92
2017-01-10T06:32:20.072Z,3.94
2017-01-10T06:33:20.064Z,4.03
2017-01-10T06:34:20.098Z,3.9
2017-01-10T06:35:20.068Z,4.07
2017-01-10T06:36:20.072Z,3.86
2017-01-10T06:37:20.075Z,3.89
2017-01-10T06:38:20.028Z,3.83
2017-01-10T06:39:20.070Z,4
2017-01-10T06:40:20.078Z,3.88
2017-01-10T06:41:20.055Z,3.85
2017-01-10T06:42:20.084Z,3.92
2017-01-10T06:43:20.172Z,4.03
2017-01-10T06:44:20.070Z,3.89
2017-01-10T06:45:20.079Z,3.82
2017-01-10T06:46:20.065Z,3.85
2017-01-10T06:47:20.156Z,3.97
2017-01-10T06:48:20.125Z,3.83
2017-01-10T06:49:20.153Z,3.83
2017-01-10T06:50:20.060Z,3.89
2017-01-10T06:51:20.126Z,3.88
2017-01-10T06:52:20.099Z,3.89
2017-01-10T06:53:20.636Z,3.88
2017-01-10T06:54:20.135Z,3.88
2017-01-10T06:55:20.069Z,3.89
2017-01-10T06:56:20.086Z,3.86
2017-01-10T06:57:20.123Z,3.82
2017-01-10T06:58:20.064Z,3.88
2017-01-10T06:59:20.091Z,3.89
2017-01-10T07:00:20.133Z,3.76
2017-01-10T07:01:20.275Z,3.88
2017-01-10T07:02:20.805Z,3.83
2017-01-10T07:03:20.144Z,3.85
2017-01-10T07:04:20.605Z,3.89
2017-01-10T07:05:20.091Z,3.76
2017-01-10T07:06:20.086Z,3.82
2017-01-10T07:07:20.584Z,3.94
2017-01-10T07:08:20.128Z,3.88
2017-01-10T07:09:20.115Z,3.96
2017-01-10T07:10:28.291Z,3.9
2017-01-10T07:11:20.453Z,3.8
2017-01-10T07:12:20.681Z,3.86
2017-01-10T07:13:20.105Z,3.9
2017-01-10T07:14:20.107Z,3.85
2017-01-10T07:15:20.099Z,3.97
2017-01-10T07:16:20.093Z,3.89
2017-01-10T07:17:20.113Z,3.88
2017-01-10T07:18:20.531Z,3.94
2017-01-10T07:19:20.151Z,3.97
2017-01-10T07:20:20.120Z,3.78
2017-01-10T07:21:20.520Z,3.86
2017-01-10T07:22:20.492Z,3.94
2017-01-10T07:23:20.125Z,3.88
2017-01-10T07:24:20.147Z,3.8
2017-01-10T07:25:20.104Z,3.89
2017-01-10T07:26:20.073Z,3.9
2017-01-10T07:27:20.258Z,3.89
2017-01-10T07:28:20.184Z,3.9
2017-01-10T07:29:20.461Z,3.9
2017-01-10T07:30:20.102Z,4
2017-01-10T07:31:20.098Z,3.94
2017-01-10T07:32:20.110Z,3.97
2017-01-10T07:33:20.110Z,3.97
2017-01-10T07:34:20.114Z,3.89
2017-01-10T07:35:20.228Z,4.03
2017-01-10T07:36:20.093Z,3.98
2017-01-10T07:37:20.126Z,3.88
2017-01-10T07:38:20.142Z,3.88
2017-01-10T07:39:20.205Z,3.97
2017-01-10T07:40:20.886Z,4.03
2017-01-10T07:41:20.161Z,3.92
2017-01-10T07:42:20.136Z,3.89
2017-01-10T07:43:20.144Z,3.88
2017-01-10T07:44:20.149Z,3.94
2017-01-10T07:45:21.171Z,3.92
2017-01-10T07:46:20.131Z,3.9
2017-01-10T07:47:20.153Z,3.98
2017-01-10T07:48:20.099Z,4
2017-01-10T07:49:20.123Z,3.97
2017-01-10T07:50:20.103Z,4.01
2017-01-10T07:51:20.229Z,4.04
2017-01-10T07:52:20.143Z,4.03
2017-01-10T07:53:20.143Z,4.14
2017-01-10T07:54:20.125Z,4.1
2017-01-10T07:55:20.226Z,4
2017-01-10T07:56:20.178Z,4.04
2017-01-10T07:57:24.730Z,4.14
2017-01-10T07:58:25.431Z,4.04
2017-01-10T07:59:20.196Z,4.16
2017-01-10T08:00:20.378Z,3.94
2017-01-10T08:01:20.229Z,3.96
2017-01-10T08:02:20.195Z,4.06
2017-01-10T08:03:20.193Z,4.19
2017-01-10T08:04:20.180Z,4.07
2017-01-10T08:05:20.475Z,4.06
2017-01-10T08:06:20.154Z,4.14
2017-01-10T08:07:20.130Z,4.14
2017-01-10T08:08:20.135Z,4.21
2017-01-10T08:09:20.170Z,4.18
2017-01-10T08:10:20.102Z,4.18
2017-01-10T08:11:20.113Z,4.12
2017-01-10T08:12:20.129Z,4.19
2017-01-10T08:13:20.121Z,4.32
2017-01-10T08:14:20.131Z,4.21
2017-01-10T08:15:20.167Z,4.21
2017-01-10T08:16:20.206Z,4.1
2017-01-10T08:17:20.135Z,4.18
2017-01-10T08:18:20.135Z,4.22
2017-01-10T08:19:20.181Z,4.18
2017-01-10T08:20:20.114Z,4.19
2017-01-10T08:21:20.178Z,4.25
2017-01-10T08:22:20.176Z,4.18
2017-01-10T08:23:20.155Z,4.19
2017-01-10T08:24:20.161Z,4.19
2017-01-10T08:25:20.152Z,4.28
2017-01-10T08:26:20.418Z,4.25
2017-01-10T08:27:20.216Z,4.34
2017-01-10T08:28:20.339Z,4.25
2017-01-10T08:29:20.129Z,4.32
2017-01-10T08:30:20.138Z,4.34
2017-01-10T08:31:20.145Z,4.25
2017-01-10T08:32:20.189Z,4.26
2017-01-10T08:33:20.193Z,4.29
2017-01-10T08:34:20.238Z,4.34
2017-01-10T08:35:20.234Z,4.29
2017-01-10T08:36:20.205Z,4.39
2017-01-10T08:37:20.186Z,4.37
2017-01-10T08:38:20.211Z,4.36
2017-01-10T08:39:20.148Z,4.32
2017-01-10T08:40:20.167Z,4.4
2017-01-10T08:41:20.165Z,4.36
2017-01-10T08:42:20.170Z,4.39
2017-01-10T08:43:20.209Z,4.42
2017-01-10T08:44:20.288Z,4.42
2017-01-10T08:45:20.167Z,4.44
2017-01-10T08:46:20.198Z,4.43
2017-01-10T08:47:20.391Z,4.37
2017-01-10T08:48:20.224Z,4.46
2017-01-10T08:49:20.147Z,4.36
2017-01-10T08:50:20.192Z,4.37
2017-01-10T08:51:20.179Z,4.33
2017-01-10T08:52:20.174Z,4.4
2017-01-10T08:53:20.183Z,4.44
2017-01-10T08:54:20.163Z,4.43
2017-01-10T08:55:20.227Z,4.46
2017-01-10T08:56:20.249Z,4.51
2017-01-10T08:57:20.204Z,4.46
2017-01-10T08:58:20.203Z,4.59
2017-01-10T08:59:20.202Z,4.46
2017-01-10T09:00:20.201Z,4.51
2017-01-10T09:01:20.168Z,4.55
2017-01-10T09:02:20.215Z,4.52
2017-01-10T09:03:20.352Z,4.33
2017-01-10T09:04:20.166Z,4.54
2017-01-10T09:05:20.208Z,4.55
2017-01-10T09:06:20.150Z,4.47
2017-01-10T09:07:20.150Z,4.59
2017-01-10T09:08:20.166Z,4.54
2017-01-10T09:09:20.187Z,4.64
2017-01-10T09:10:20.187Z,4.55
2017-01-10T09:11:20.160Z,4.59
2017-01-10T09:12:20.180Z,4.67
2017-01-10T09:13:20.160Z,4.65
2017-01-10T09:14:20.164Z,4.61
2017-01-10T09:15:20.179Z,4.77
2017-01-10T09:16:20.181Z,4.73
2017-01-10T09:17:20.165Z,4.62
2017-01-10T09:18:20.185Z,4.77
2017-01-10T09:19:20.189Z,4.77
2017-01-10T09:20:20.589Z,4.72
2017-01-10T09:21:20.168Z,4.73
2017-01-10T09:22:20.188Z,4.8
2017-01-10T09:23:20.330Z,4.89
2017-01-10T09:24:20.160Z,4.84
2017-01-10T09:25:20.183Z,4.8
2017-01-10T09:26:20.184Z,4.94
2017-01-10T09:27:20.149Z,4.84
2017-01-10T09:28:20.173Z,4.91
2017-01-10T09:29:20.187Z,4.96
2017-01-10T09:30:20.139Z,5.05
2017-01-10T09:31:20.451Z,4.95
2017-01-10T09:32:20.237Z,4.92
2017-01-10T09:33:20.176Z,4.91
2017-01-10T09:34:20.202Z,5.01
2017-01-10T09:35:20.189Z,5.02
2017-01-10T09:36:20.233Z,5.07
2017-01-10T09:37:20.239Z,5.07
2017-01-10T09:38:20.273Z,4.96
2017-01-10T09:39:20.269Z,5.16
2017-01-10T09:40:20.239Z,5.05
2017-01-10T09:41:20.183Z,5.27
2017-01-10T09:42:20.207Z,5.16
2017-01-10T09:43:20.183Z,5.14
2017-01-10T09:44:20.977Z,5.17
2017-01-10T09:45:20.289Z,5.2
2017-01-10T09:46:20.182Z,5.19
2017-01-10T09:47:20.196Z,5.19
2017-01-10T09:48:20.193Z,5.28
2017-01-10T09:49:20.199Z,5.32
2017-01-10T09:50:20.187Z,5.31
2017-01-10T09:51:20.150Z,5.34
2017-01-10T09:52:20.209Z,5.41
2017-01-10T09:53:20.350Z,5.5
2017-01-10T09:54:20.240Z,5.52
2017-01-10T09:55:20.260Z,5.52
2017-01-10T09:56:20.247Z,5.56
2017-01-10T09:57:20.235Z,5.63
2017-01-10T09:58:20.266Z,5.55
2017-01-10T09:59:20.235Z,5.6
2017-01-10T10:00:20.313Z,5.7
2017-01-10T10:01:20.265Z,5.78
2017-01-10T10:02:20.304Z,5.92
2017-01-10T10:03:20.255Z,5.81
2017-01-10T10:04:20.309Z,5.71
2017-01-10T10:05:20.262Z,5.83
2017-01-10T10:06:20.233Z,5.82
2017-01-10T10:07:20.275Z,5.89
2017-01-10T10:08:20.245Z,5.75
2017-01-10T10:09:20.248Z,5.85
2017-01-10T10:10:20.252Z,5.89
2017-01-10T10:11:20.260Z,6.06
2017-01-10T10:12:20.191Z,5.98
2017-01-10T10:13:20.228Z,6.09
2017-01-10T10:14:20.231Z,6.01
2017-01-10T10:15:20.236Z,5.93
2017-01-10T10:16:20.184Z,5.96
2017-01-10T10:17:20.284Z,5.95
2017-01-10T10:18:20.223Z,6.03
2017-01-10T10:19:20.195Z,6.04
2017-01-10T10:20:20.301Z,6.09
2017-01-10T10:21:20.211Z,6.13
2017-01-10T10:22:20.301Z,6.06
2017-01-10T10:23:20.340Z,6.13
2017-01-10T10:24:20.211Z,6.16
2017-01-10T10:25:21.247Z,6.06
2017-01-10T10:26:20.217Z,6.1
2017-01-10T10:27:20.179Z,6.14
2017-01-10T10:28:20.185Z,6.06
2017-01-10T10:29:20.226Z,6.11
2017-01-10T10:30:20.496Z,6.11
2017-01-10T10:31:20.227Z,6.19
2017-01-10T10:32:20.180Z,6.07
2017-01-10T10:33:20.218Z,6.13
2017-01-10T10:34:20.202Z,6.11
2017-01-10T10:35:20.387Z,6.11
2017-01-10T10:36:20.201Z,6.11
2017-01-10T10:37:20.215Z,6.11
2017-01-10T10:38:20.252Z,6.26
2017-01-10T10:39:20.221Z,6.13
2017-01-10T10:40:21.133Z,6.09
2017-01-10T10:41:20.311Z,6.07
2017-01-10T10:42:20.267Z,6.21
2017-01-10T10:43:20.257Z,6.25
2017-01-10T10:44:20.267Z,6.18
2017-01-10T10:45:20.260Z,6.11
2017-01-10T10:46:20.251Z,6.14
2017-01-10T10:47:20.238Z,6.3
2017-01-10T10:48:20.230Z,6.32
2017-01-10T10:49:20.225Z,6.25
2017-01-10T10:50:20.243Z,6.28
2017-01-10T10:51:20.306Z,6.36
2017-01-10T10:52:20.238Z,6.36
2017-01-10T10:53:20.206Z,6.36
2017-01-10T10:54:20.228Z,6.36
2017-01-10T10:55:20.186Z,6.48
2017-01-10T10:56:20.337Z,6.4
2017-01-10T10:57:20.200Z,6.56
2017-01-10T10:58:20.408Z,6.5
2017-01-10T10:59:20.841Z,6.63
2017-01-10T11:00:20.204Z,6.63
2017-01-10T11:01:20.211Z,6.73
2017-01-10T11:02:20.207Z,6.48
2017-01-10T11:03:20.215Z,6.66
2017-01-10T11:04:20.244Z,6.8
2017-01-10T11:05:20.296Z,6.9
2017-01-10T11:06:20.261Z,6.94
2017-01-10T11:07:20.238Z,6.83
2017-01-10T11:08:20.212Z,6.89
2017-01-10T11:09:20.236Z,6.98
2017-01-10T11:10:20.256Z,6.99
2017-01-10T11:11:20.250Z,6.97
2017-01-10T11:12:20.213Z,7.15
2017-01-10T11:13:20.232Z,7.12
2017-01-10T11:14:20.309Z,6.91
2017-01-10T11:15:20.596Z,7.13
2017-01-10T11:16:20.236Z,7.16
2017-01-10T11:17:20.242Z,6.99
2017-01-10T11:18:20.239Z,7.15
2017-01-10T11:19:20.309Z,7.05
2017-01-10T11:20:20.246Z,6.99
2017-01-10T11:21:20.254Z,6.94
2017-01-10T11:22:20.243Z,7.07
2017-01-10T11:23:20.245Z,6.97
2017-01-10T11:24:20.247Z,6.95
2017-01-10T11:25:20.253Z,6.99
2017-01-10T11:26:20.260Z,6.95
2017-01-10T11:27:20.210Z,7.02
2017-01-10T11:28:20.258Z,6.97
2017-01-10T11:29:20.297Z,6.99
2017-01-10T11:30:20.317Z,7.13
2017-01-10T11:31:20.220Z,7.07
2017-01-10T11:32:20.258Z,7.05
2017-01-10T11:33:20.275Z,7.15
2017-01-10T11:34:20.266Z,6.98
2017-01-10T11:35:20.654Z,6.95
2017-01-10T11:36:20.336Z,7.05
2017-01-10T11:37:20.220Z,7.08
2017-01-10T11:38:20.250Z,7.08
2017-01-10T11:39:20.249Z,6.87
2017-01-10T11:40:20.294Z,6.97
2017-01-10T11:41:20.271Z,6.81
2017-01-10T11:42:20.531Z,6.95
2017-01-10T11:43:20.318Z,6.9
2017-01-10T11:44:20.302Z,6.81
2017-01-10T11:45:20.305Z,6.94
2017-01-10T11:46:20.378Z,6.95
2017-01-10T11:47:20.275Z,6.99
2017-01-10T11:48:20.334Z,7.02
2017-01-10T11:49:20.302Z,7.04
2017-01-10T11:50:20.435Z,7.08
2017-01-10T11:51:20.323Z,7.01
2017-01-10T11:52:20.269Z,7.08
2017-01-10T11:53:20.323Z,7.08
2017-01-10T11:54:20.327Z,7.12
2017-01-10T11:55:20.292Z,7.17
2017-01-10T11:56:20.293Z,7.15
2017-01-10T11:57:20.369Z,7.24
2017-01-10T11:58:20.335Z,7.19
2017-01-10T11:59:20.295Z,7.2
2017-01-10T12:00:20.321Z,7.32
2017-01-10T12:01:20.285Z,7.27
2017-01-10T12:02:20.308Z,7.31
2017-01-10T12:03:20.293Z,7.2
2017-01-10T12:04:20.914Z,7.22
2017-01-10T12:05:20.544Z,7.12
2017-01-10T12:06:20.281Z,7.16
2017-01-10T12:07:20.279Z,7.05
2017-01-10T12:08:20.279Z,7.13
2017-01-10T12:09:20.273Z,7.05
2017-01-10T12:10:20.418Z,7.08
2017-01-10T12:11:20.284Z,6.98
2017-01-10T12:12:20.810Z,7.09
2017-01-10T12:13:20.301Z,7.07
2017-01-10T12:14:20.302Z,6.95
2017-01-10T12:15:20.317Z,6.97
2017-01-10T12:16:20.305Z,7.08
2017-01-10T12:17:20.324Z,7.01
2017-01-10T12:18:20.326Z,7.08
2017-01-10T12:19:20.297Z,7.15
2017-01-10T12:20:20.329Z,7.02
2017-01-10T12:21:20.263Z,7.17
2017-01-10T12:22:20.281Z,7.2
2017-01-10T12:23:20.279Z,7.02
2017-01-10T12:24:20.324Z,7.15
2017-01-10T12:25:20.319Z,7.07
2017-01-10T12:26:20.283Z,7.16
2017-01-10T12:27:20.278Z,7.09
2017-01-10T12:28:21.039Z,7.13
2017-01-10T12:29:20.431Z,7.12
2017-01-10T12:30:20.692Z,7.2
2017-01-10T12:31:20.359Z,7.09
2017-01-10T12:32:20.348Z,7.05
2017-01-10T12:33:20.419Z,6.99
2017-01-10T12:34:20.345Z,7.09
2017-01-10T12:35:20.358Z,6.98
2017-01-10T12:36:20.308Z,7.09
2017-01-10T12:37:20.503Z,7.09
2017-01-10T12:38:20.350Z,7.02
2017-01-10T12:39:20.305Z,7.07
2017-01-10T12:40:20.351Z,6.97
2017-01-10T12:41:20.277Z,7.02
2017-01-10T12:42:20.350Z,6.97
2017-01-10T12:43:20.407Z,6.86
2017-01-10T12:44:20.312Z,6.89
2017-01-10T12:45:20.430Z,6.83
2017-01-10T12:46:20.334Z,6.65
2017-01-10T12:47:20.341Z,6.79
2017-01-10T12:48:20.303Z,6.83
2017-01-10T12:49:20.303Z,6.8
2017-01-10T12:50:20.334Z,6.86
2017-01-10T12:51:20.351Z,6.81
2017-01-10T12:52:20.369Z,6.81
2017-01-10T12:53:20.329Z,6.8
2017-01-10T12:54:20.352Z,6.86
2017-01-10T12:55:20.802Z,6.97
2017-01-10T12:56:20.367Z,6.89
2017-01-10T12:57:20.390Z,6.89
2017-01-10T12:58:20.340Z,6.83
2017-01-10T12:59:20.313Z,6.8
2017-01-10T13:00:20.385Z,6.89
2017-01-10T13:01:20.352Z,6.81
2017-01-10T13:02:20.382Z,6.8
2017-01-10T13:03:20.315Z,6.71
2017-01-10T13:04:20.413Z,6.73
2017-01-10T13:05:20.385Z,6.79
2017-01-10T13:06:20.361Z,6.8
2017-01-10T13:07:20.344Z,6.73
2017-01-10T13:08:20.399Z,6.72
2017-01-10T13:09:20.337Z,6.66
2017-01-10T13:10:20.357Z,6.76
2017-01-10T13:11:20.400Z,6.84
2017-01-10T13:12:20.484Z,6.73
2017-01-10T13:13:20.333Z,6.84
2017-01-10T13:14:20.370Z,6.89
2017-01-10T13:15:20.345Z,6.84
2017-01-10T13:16:20.373Z,6.86
2017-01-10T13:17:20.817Z,6.89
2017-01-10T13:18:20.363Z,6.83
2017-01-10T13:19:20.329Z,6.87
2017-01-10T13:20:20.804Z,6.79
2017-01-10T13:21:21.051Z,6.86
2017-01-10T13:22:21.704Z,6.86
2017-01-10T13:23:20.729Z,6.94
2017-01-10T13:24:21.214Z,6.72